Time;durP1;ratioP1;P1;durP2;ratioP2;P2;SDS_P1;SDS_P2;PMS_P1;PMS_P2;Temp;Humidity;BMP_temperature;BMP_pressure;BME280_temperature;BME280_humidity;BME280_pressure;Samples;Min_cycle;Max_cycle;Signal;HPM_P1;HPM_P2
2022/12/25 05:14:26;;;;;;;52.30;28.30;;;;;;;2.65;100.00;97673.49;104557;1306;596801;-68
2022/12/25 05:16:56;;;;;;;67.50;36.00;;;;;;;2.65;100.00;97680.41;107189;1278;57767;-69
2022/12/25 05:19:28;;;;;;;46.60;28.20;;;;;;;2.67;100.00;97682.20;107202;1276;57708;-69
2022/12/25 05:21:57;;;;;;;45.10;30.10;;;;;;;2.71;100.00;97687.92;107116;1278;68192;-69
2022/12/25 05:24:27;;;;;;;39.50;26.00;;;;;;;2.73;100.00;97687.18;107192;1278;69833;-69
2022/12/25 05:26:56;;;;;;;41.20;26.00;;;;;;;2.75;100.00;97688.81;106496;1276;763914;-68
2022/12/25 05:29:25;;;;;;;31.40;20.70;;;;;;;2.75;100.00;97687.27;107292;1272;57709;-69
2022/12/25 05:31:55;;;;;;;44.50;29.10;;;;;;;2.99;100.00;97686.02;107292;1277;57660;-68
2022/12/25 05:34:24;;;;;;;40.30;26.20;;;;;;;2.96;100.00;97687.99;108079;1264;68162;-69
2022/12/25 05:36:55;;;;;;;43.20;26.80;;;;;;;2.91;100.00;97687.20;108068;1264;69821;-69
2022/12/25 05:39:24;;;;;;;36.70;23.30;;;;;;;2.85;100.00;97691.88;108070;1263;68254;-72
2022/12/25 05:41:53;;;;;;;41.90;27.00;;;;;;;2.78;100.00;97698.34;108036;1263;58072;-70
2022/12/25 05:44:23;;;;;;;42.20;26.60;;;;;;;2.74;100.00;97697.63;108115;1261;58126;-71
2022/12/25 05:46:52;;;;;;;40.30;26.60;;;;;;;2.72;100.00;97698.22;108081;1263;69750;-71
2022/12/25 05:49:21;;;;;;;40.20;24.20;;;;;;;2.80;100.00;97700.67;108052;1263;68592;-70
2022/12/25 05:51:51;;;;;;;33.10;20.40;;;;;;;2.87;100.00;97706.42;108016;1257;68462;-70
2022/12/25 05:54:21;;;;;;;36.20;22.40;;;;;;;2.99;100.00;97715.98;108036;1264;58156;-70
2022/12/25 05:56:50;;;;;;;33.60;20.50;;;;;;;3.08;100.00;97715.64;108100;1263;58160;-70
2022/12/25 05:59:19;;;;;;;35.60;19.60;;;;;;;3.14;100.00;97719.71;108040;1264;69641;-70
2022/12/25 06:01:49;;;;;;;32.30;18.50;;;;;;;3.16;100.00;97720.52;108027;1261;69815;-70
2022/12/25 06:04:18;;;;;;;32.00;18.80;;;;;;;3.16;100.00;97724.27;108094;1263;68289;-70
2022/12/25 06:06:48;;;;;;;27.90;18.00;;;;;;;3.13;100.00;97724.58;108038;1260;58106;-70
2022/12/25 06:09:17;;;;;;;28.50;17.20;;;;;;;3.14;100.00;97727.30;108093;1260;58172;-70
2022/12/25 06:11:49;;;;;;;28.80;16.60;;;;;;;3.16;100.00;97734.64;108054;1263;70195;-70
2022/12/25 06:14:17;;;;;;;33.40;20.90;;;;;;;3.16;100.00;97738.09;108061;1261;68383;-70
2022/12/25 06:16:50;;;;;;;23.50;15.60;;;;;;;3.17;100.00;97738.23;108096;1263;69866;-70
2022/12/25 06:19:20;;;;;;;33.30;19.00;;;;;;;3.21;100.00;97737.71;108059;1259;58149;-70
2022/12/25 06:21:53;;;;;;;34.30;20.20;;;;;;;3.34;100.00;97735.31;108051;1259;58078;-70
2022/12/25 06:24:23;;;;;;;27.60;16.10;;;;;;;3.43;100.00;97736.35;108089;1263;70391;-70
2022/12/25 06:26:52;;;;;;;34.10;18.10;;;;;;;3.47;100.00;97739.27;108085;1264;69142;-70
2022/12/25 06:29:21;;;;;;;33.10;19.00;;;;;;;3.50;100.00;97742.42;107950;1267;69291;-70
2022/12/25 06:31:55;;;;;;;36.10;20.90;;;;;;;3.53;100.00;97745.41;107981;1267;58171;-69
2022/12/25 06:34:26;;;;;;;29.10;18.50;;;;;;;3.61;100.00;97749.44;108030;1264;58129;-70
2022/12/25 06:36:54;;;;;;;30.70;18.70;;;;;;;3.67;100.00;97756.25;108020;1264;69010;-69
2022/12/25 06:39:24;;;;;;;25.60;15.90;;;;;;;3.71;100.00;97760.59;108014;1263;69067;-70
2022/12/25 06:41:53;;;;;;;22.60;15.60;;;;;;;3.77;100.00;97766.38;108025;1266;69297;-70
2022/12/25 06:44:22;;;;;;;25.80;15.80;;;;;;;3.84;100.00;97773.34;107968;1264;58562;-70
2022/12/25 06:46:52;;;;;;;20.80;14.80;;;;;;;3.87;100.00;97777.33;107980;1264;58061;-70
2022/12/25 06:49:21;;;;;;;25.80;14.50;;;;;;;3.91;100.00;97785.82;108090;1267;70737;-71
2022/12/25 06:51:50;;;;;;;24.50;15.30;;;;;;;3.92;100.00;97793.18;108008;1265;69651;-71
2022/12/25 06:54:19;;;;;;;23.40;16.70;;;;;;;3.95;100.00;97795.97;108025;1263;69918;-71
2022/12/25 06:56:48;;;;;;;24.80;18.40;;;;;;;3.93;100.00;97799.84;108053;1262;58085;-71
2022/12/25 06:59:17;;;;;;;25.10;17.60;;;;;;;3.92;100.00;97804.02;108001;1263;58432;-70
2022/12/25 07:01:52;;;;;;;22.30;15.90;;;;;;;3.91;100.00;97806.15;108043;1261;70281;-69
2022/12/25 07:04:26;;;;;;;27.60;17.50;;;;;;;3.93;100.00;97807.10;107987;1264;68419;-69
2022/12/25 07:06:55;;;;;;;30.90;23.20;;;;;;;3.94;100.00;97810.69;108010;1260;69112;-69
2022/12/25 07:09:24;;;;;;;25.00;17.10;;;;;;;3.98;100.00;97814.14;108011;1264;58098;-69
2022/12/25 07:11:53;;;;;;;31.80;22.60;;;;;;;4.01;100.00;97817.98;108020;1263;58039;-69
2022/12/25 07:14:22;;;;;;;25.20;18.90;;;;;;;4.06;100.00;97818.81;108004;1263;69318;-69
2022/12/25 07:16:51;;;;;;;21.70;13.50;;;;;;;4.13;100.00;97823.58;108004;1264;69000;-69
2022/12/25 07:19:21;;;;;;;21.10;13.40;;;;;;;4.19;100.00;97824.52;108012;1263;69128;-70
2022/12/25 07:21:50;;;;;;;15.60;11.20;;;;;;;4.23;100.00;97825.91;107996;1264;58116;-70
2022/12/25 07:24:19;;;;;;;20.00;12.80;;;;;;;4.29;100.00;97827.23;108063;1261;58081;-70
2022/12/25 07:26:50;;;;;;;36.20;23.70;;;;;;;4.31;100.00;97829.41;108039;1264;69595;-70
2022/12/25 07:29:18;;;;;;;26.80;17.00;;;;;;;4.46;100.00;97832.36;108072;1263;68436;-70
2022/12/25 07:31:48;;;;;;;55.80;33.40;;;;;;;4.88;100.00;97827.31;108063;1263;69123;-70
2022/12/25 07:34:18;;;;;;;25.20;16.10;;;;;;;5.41;100.00;97827.73;108042;1264;58486;-69
2022/12/25 07:36:46;;;;;;;23.60;14.80;;;;;;;5.93;99.45;97836.41;107989;1260;58118;-70
2022/12/25 07:39:15;;;;;;;13.10;9.70;;;;;;;6.40;99.00;97839.88;108032;1264;69691;-69
2022/12/25 07:41:44;;;;;;;17.70;11.60;;;;;;;6.83;94.14;97841.72;108071;1264;67484;-69
2022/12/25 07:44:15;;;;;;;14.90;9.80;;;;;;;7.28;91.37;97848.03;108095;1260;69404;-69
2022/12/25 07:46:43;;;;;;;21.30;14.70;;;;;;;7.76;88.91;97847.55;108095;1263;58151;-70
2022/12/25 07:49:14;;;;;;;15.50;10.40;;;;;;;8.13;86.60;97852.95;108057;1262;58058;-70
2022/12/25 07:51:42;;;;;;;10.70;8.30;;;;;;;8.41;86.73;97855.40;108082;1260;69585;-68
2022/12/25 07:54:11;;;;;;;10.70;9.10;;;;;;;8.51;82.82;97857.80;108061;1259;69783;-69
2022/12/25 07:56:40;;;;;;;8.60;7.30;;;;;;;8.66;80.51;97870.51;108050;1260;69939;-69
2022/12/25 07:59:08;;;;;;;11.50;7.80;;;;;;;8.98;78.63;97876.80;108068;1261;58154;-70
2022/12/25 08:01:38;;;;;;;10.50;7.40;;;;;;;9.09;77.79;97883.43;108074;1264;58070;-69
2022/12/25 08:04:09;;;;;;;9.60;7.00;;;;;;;9.54;77.32;97881.08;108134;1260;70377;-68
2022/12/25 08:06:38;;;;;;;9.00;6.80;;;;;;;9.95;74.86;97888.48;108047;1263;69305;-69
2022/12/25 08:09:10;;;;;;;10.00;7.80;;;;;;;10.29;73.08;97886.66;108100;1264;69070;-70
2022/12/25 08:11:43;;;;;;;10.20;7.80;;;;;;;10.66;71.47;97891.42;108092;1263;58108;-69
2022/12/25 08:14:12;;;;;;;8.30;7.00;;;;;;;11.23;69.78;97900.55;108083;1263;58116;-69
2022/12/25 08:16:41;;;;;;;8.20;7.10;;;;;;;11.71;66.41;97900.06;108099;1263;70232;-70
2022/12/25 08:19:10;;;;;;;8.20;6.50;;;;;;;12.02;65.10;97901.61;108037;1263;68378;-70
2022/12/25 08:21:39;;;;;;;9.60;7.50;;;;;;;12.43;65.77;97909.61;108178;1263;69893;-78
2022/12/25 08:24:07;;;;;;;7.90;6.50;;;;;;;12.55;63.99;97914.20;108131;1263;58498;-71
2022/12/25 08:26:36;;;;;;;8.40;6.70;;;;;;;12.76;62.51;97918.08;108051;1263;58074;-70
2022/12/25 08:29:05;;;;;;;8.80;7.90;;;;;;;12.88;64.39;97926.27;108109;1263;69048;-70
2022/12/25 08:31:33;;;;;;;8.60;6.70;;;;;;;12.59;64.22;97930.29;108086;1263;69197;-70
2022/12/25 08:34:09;;;;;;;7.90;6.90;;;;;;;12.49;63.08;97929.49;108087;1259;69192;-71
2022/12/25 08:36:37;;;;;;;9.30;7.30;;;;;;;12.44;64.18;97928.63;108016;1264;58106;-69
2022/12/25 08:39:07;;;;;;;11.00;6.80;;;;;;;12.31;63.48;97929.39;108060;1263;58093;-69
2022/12/25 08:41:36;;;;;;;8.00;6.00;;;;;;;12.16;63.49;97934.13;108029;1259;69589;-71
2022/12/25 08:44:05;;;;;;;8.80;6.20;;;;;;;12.39;63.76;97934.77;108028;1263;69891;-72
2022/12/25 08:46:35;;;;;;;7.70;6.00;;;;;;;12.25;64.63;97932.55;108060;1263;69887;-71
2022/12/25 08:49:04;;;;;;;8.10;5.30;;;;;;;11.81;65.28;97940.56;108084;1263;58097;-70
2022/12/25 08:51:33;;;;;;;7.40;5.80;;;;;;;11.26;65.52;97944.63;108051;1259;58080;-70
2022/12/25 08:54:01;;;;;;;8.00;6.00;;;;;;;10.89;66.79;97937.33;108070;1259;70176;-70
2022/12/25 08:56:30;;;;;;;8.40;5.90;;;;;;;10.41;67.19;97937.33;108119;1263;69004;-69
2022/12/25 08:58:59;;;;;;;8.80;6.40;;;;;;;10.30;67.81;97932.41;108051;1263;69250;-68
2022/12/25 09:01:27;;;;;;;7.30;5.40;;;;;;;10.07;68.18;97931.27;107993;1264;58193;-69
2022/12/25 09:03:56;;;;;;;8.80;5.80;;;;;;;10.73;68.30;97933.71;108089;1263;58056;-70
2022/12/25 09:06:25;;;;;;;7.50;5.10;;;;;;;11.25;65.26;97923.78;108047;1260;69057;-71
2022/12/25 09:08:54;;;;;;;6.10;5.00;;;;;;;12.05;63.72;97916.54;108083;1259;69078;-70
2022/12/25 09:11:23;;;;;;;5.60;4.90;;;;;;;12.21;61.76;97921.36;108046;1259;69244;-70
2022/12/25 09:13:52;;;;;;;7.40;4.70;;;;;;;12.98;60.00;97922.55;108017;1264;58184;-69
2022/12/25 09:16:21;;;;;;;5.30;4.70;;;;;;;13.88;59.85;97914.85;108099;1264;58063;-70
2022/12/25 09:18:51;;;;;;;5.70;4.90;;;;;;;14.34;56.29;97913.27;108058;1260;70784;-70
2022/12/25 09:21:19;;;;;;;6.90;5.00;;;;;;;14.92;56.71;97917.20;108059;1260;68395;-69
2022/12/25 09:23:48;;;;;;;6.20;5.40;;;;;;;14.95;54.85;97922.69;108076;1257;69305;-70
2022/12/25 09:26:18;;;;;;;6.90;5.10;;;;;;;15.22;54.45;97927.11;108076;1263;58995;-69
2022/12/25 09:28:47;;;;;;;7.00;4.90;;;;;;;15.12;52.48;97927.09;108083;1260;58956;-70
2022/12/25 09:31:21;;;;;;;5.80;4.90;;;;;;;15.42;51.67;97931.48;108040;1260;70051;-69
2022/12/25 09:33:54;;;;;;;8.00;6.30;;;;;;;15.41;50.67;97932.81;108077;1261;68984;-70
2022/12/25 09:36:23;;;;;;;6.70;5.20;;;;;;;15.47;50.04;97933.10;108027;1259;69270;-70
2022/12/25 09:38:52;;;;;;;6.20;5.20;;;;;;;15.41;51.02;97938.02;108004;1259;59002;-71
2022/12/25 09:41:33;;;;;;;6.50;4.60;;;;;;;15.58;49.24;97940.45;108042;1263;58895;-71
2022/12/25 09:44:09;;;;;;;6.40;4.50;;;;;;;15.89;50.01;97945.05;108064;1260;70567;-71
2022/12/25 09:46:43;;;;;;;6.10;5.10;;;;;;;16.39;49.47;97946.67;108098;1263;69163;-72
2022/12/25 09:49:29;;;;;;;5.70;5.10;;;;;;;15.65;49.64;97946.02;108086;1260;69250;-70
2022/12/25 09:52:04;;;;;;;5.50;4.40;;;;;;;15.28;50.86;97955.76;108048;1260;58881;-72
2022/12/25 09:54:56;;;;;;;6.40;4.80;;;;;;;14.45;53.05;97957.61;108083;1260;58894;-71
2022/12/25 09:57:25;;;;;;;6.20;3.90;;;;;;;14.31;53.79;97956.63;108060;1263;69616;-69
2022/12/25 09:59:54;;;;;;;9.00;5.20;;;;;;;13.75;54.42;97962.02;108031;1260;68256;-72
2022/12/25 10:02:44;;;;;;;5.90;4.70;;;;;;;13.17;55.81;97969.95;108029;1259;69749;-70
2022/12/25 10:05:35;;;;;;;6.80;4.60;;;;;;;12.73;56.75;97970.02;108046;1264;58910;-70
2022/12/25 10:08:16;;;;;;;6.40;4.90;;;;;;;12.14;58.07;97976.34;108350;1257;59320;-71
2022/12/25 10:10:58;;;;;;;6.00;5.10;;;;;;;11.57;59.91;97978.30;108086;1259;71174;-70
2022/12/25 10:14:22;;;;;;;7.60;4.80;;;;;;;11.22;60.81;97979.69;108146;1260;69106;-71
2022/12/25 10:17:10;;;;;;;7.30;4.80;;;;;;;10.54;62.76;97973.23;107422;1272;69318;-67
2022/12/25 10:19:39;;;;;;;6.60;4.70;;;;;;;10.50;64.03;97975.06;108126;1257;58908;-68
2022/12/25 10:22:33;;;;;;;5.70;4.40;;;;;;;10.47;64.16;97968.98;108087;1264;58902;-68
2022/12/25 10:25:05;;;;;;;6.70;4.60;;;;;;;11.54;62.29;97964.21;107997;1264;70872;-68
2022/12/25 10:27:39;;;;;;;5.30;4.40;;;;;;;12.39;59.58;97960.95;108211;1256;68515;-69
2022/12/25 10:30:22;;;;;;;7.60;4.60;;;;;;;13.17;57.09;97958.21;108164;1257;68304;-69
2022/12/25 10:32:55;;;;;;;5.80;4.40;;;;;;;13.36;56.17;97959.48;108069;1257;58903;-68
2022/12/25 10:35:27;;;;;;;5.60;4.00;;;;;;;13.30;56.85;97967.29;108187;1257;58897;-68
2022/12/25 10:38:04;;;;;;;7.30;5.00;;;;;;;12.86;57.23;97966.42;107995;1259;70409;-68
2022/12/25 10:40:55;;;;;;;5.40;4.40;;;;;;;12.60;58.56;97969.09;108196;1259;68419;-68
2022/12/25 10:43:32;;;;;;;6.60;4.20;;;;;;;12.89;58.02;97973.08;108185;1257;70256;-69
2022/12/25 10:46:00;;;;;;;6.60;4.50;;;;;;;12.48;57.86;97967.26;108337;1256;58941;-67
2022/12/25 10:48:32;;;;;;;5.70;3.50;;;;;;;12.63;58.12;97968.35;108242;1256;59354;-67
2022/12/25 10:51:01;;;;;;;5.20;4.20;;;;;;;12.79;58.52;97975.94;108139;1262;71078;-67
2022/12/25 10:53:40;;;;;;;4.10;3.00;;;;;;;12.94;57.56;97970.64;108142;1263;69804;-67
2022/12/25 10:56:16;;;;;;;7.30;3.90;;;;;;;13.42;57.31;97974.43;108012;1264;70018;-67
2022/12/25 10:58:44;;;;;;;5.60;4.00;;;;;;;13.53;56.36;97974.42;108041;1259;58876;-68
2022/12/25 11:01:14;;;;;;;5.50;3.20;;;;;;;13.41;56.59;97973.10;108101;1259;58889;-67
2022/12/25 11:03:46;;;;;;;4.10;3.30;;;;;;;13.20;55.91;97969.04;108067;1264;70392;-66
2022/12/25 11:06:33;;;;;;;7.30;3.90;;;;;;;12.88;56.97;97959.49;108397;1257;69692;-66
2022/12/25 11:09:03;;;;;;;5.60;4.30;;;;;;;12.66;57.03;97953.45;108088;1257;68113;-65
2022/12/25 11:11:32;;;;;;;7.30;4.90;;;;;;;12.17;58.86;97947.14;108215;1257;58945;-67
2022/12/25 11:14:02;;;;;;;6.90;3.90;;;;;;;11.97;59.19;97950.45;108065;1260;58875;-67
2022/12/25 11:16:36;;;;;;;7.00;3.90;;;;;;;11.59;59.84;97956.23;108065;1257;69746;-67
2022/12/25 11:19:25;;;;;;;3.90;2.70;;;;;;;11.49;60.90;97967.88;108195;1263;69150;-67
2022/12/25 11:21:57;;;;;;;5.50;3.40;;;;;;;11.28;61.42;97964.59;108138;1264;69271;-68
2022/12/25 11:24:31;;;;;;;6.50;4.40;;;;;;;11.00;61.88;97966.78;108043;1260;58930;-67
2022/12/25 11:27:07;;;;;;;4.80;3.80;;;;;;;10.72;62.92;97965.81;108056;1260;58883;-68
2022/12/25 11:29:44;;;;;;;5.30;3.60;;;;;;;10.71;64.40;97965.36;108060;1261;71066;-68
2022/12/25 11:32:23;;;;;;;5.50;4.00;;;;;;;10.61;64.54;97968.09;108117;1263;69265;-67
2022/12/25 11:34:52;;;;;;;6.40;4.00;;;;;;;10.49;65.17;97975.69;108083;1256;69887;-67
2022/12/25 11:37:45;;;;;;;6.40;4.10;;;;;;;10.36;65.36;97978.42;108026;1264;58898;-68
2022/12/25 11:40:17;;;;;;;4.80;3.70;;;;;;;9.90;65.35;97984.48;107994;1258;58803;-67
2022/12/25 11:43:02;;;;;;;4.80;4.10;;;;;;;9.84;65.86;97985.22;108049;1259;71693;-67
2022/12/25 11:45:40;;;;;;;5.40;3.80;;;;;;;9.76;66.81;97988.02;108052;1263;68662;-67
2022/12/25 11:48:27;;;;;;;7.10;4.50;;;;;;;9.49;67.32;97991.69;108025;1260;68485;-67
2022/12/25 11:51:00;;;;;;;7.00;4.00;;;;;;;9.27;67.70;97993.29;108055;1260;58917;-67
2022/12/25 11:53:35;;;;;;;7.10;4.80;;;;;;;8.97;69.01;97991.77;108047;1263;58959;-67
2022/12/25 11:56:18;;;;;;;7.00;4.20;;;;;;;8.83;69.77;97991.83;108053;1260;71302;-67
2022/12/25 11:58:48;;;;;;;6.00;4.00;;;;;;;8.71;70.74;97991.85;108079;1260;68985;-67
2022/12/25 12:01:31;;;;;;;4.70;3.30;;;;;;;8.79;70.96;97988.64;108022;1264;69975;-67
2022/12/25 12:04:02;;;;;;;6.50;3.50;;;;;;;8.87;71.39;97992.48;108056;1264;58891;-67
2022/12/25 12:06:59;;;;;;;7.50;4.90;;;;;;;8.78;70.64;97989.20;108069;1260;58983;-66
2022/12/25 12:09:39;;;;;;;5.60;3.90;;;;;;;8.67;71.15;97992.78;108037;1262;70576;-67
2022/12/25 12:12:33;;;;;;;4.80;3.90;;;;;;;8.78;71.08;97989.36;108043;1260;69574;-67
2022/12/25 12:15:16;;;;;;;7.40;4.00;;;;;;;8.61;71.60;97985.80;108062;1259;68310;-66
2022/12/25 12:17:44;;;;;;;6.90;4.50;;;;;;;8.83;72.05;97993.39;108105;1260;58970;-66
2022/12/25 12:20:34;;;;;;;6.50;5.10;;;;;;;8.96;72.20;97993.89;108108;1264;58879;-67
2022/12/25 12:23:12;;;;;;;6.10;4.50;;;;;;;9.09;71.73;97990.55;108090;1263;70566;-68
2022/12/25 12:25:43;;;;;;;4.70;3.10;;;;;;;9.48;70.21;97997.98;108106;1264;69814;-66
2022/12/25 12:28:20;;;;;;;6.50;4.20;;;;;;;9.95;68.27;97993.27;108078;1263;69096;-66
2022/12/25 12:31:07;;;;;;;7.80;4.30;;;;;;;10.11;67.97;97998.56;108047;1262;58882;-66
2022/12/25 12:33:47;;;;;;;5.00;3.30;;;;;;;10.08;67.90;97999.97;108056;1264;58923;-67
2022/12/25 12:36:17;;;;;;;7.10;4.70;;;;;;;10.14;66.05;98005.88;108057;1263;70072;-68
2022/12/25 12:39:03;;;;;;;5.30;3.40;;;;;;;10.25;66.87;98003.29;108059;1259;69176;-68
2022/12/25 12:41:46;;;;;;;6.00;3.40;;;;;;;10.21;66.56;98006.00;108072;1264;70016;-69
2022/12/25 12:44:16;;;;;;;5.10;3.10;;;;;;;10.34;66.66;98002.21;108066;1264;58912;-69
2022/12/25 12:46:54;;;;;;;4.20;2.70;;;;;;;10.43;66.69;98002.70;108104;1259;58893;-68
2022/12/25 12:49:31;;;;;;;5.00;3.60;;;;;;;10.51;66.41;98005.52;108036;1264;71108;-67
2022/12/25 12:52:36;;;;;;;6.10;3.60;;;;;;;10.48;64.84;98008.14;108050;1264;69236;-66
2022/12/25 12:55:11;;;;;;;4.80;3.50;;;;;;;10.35;65.58;98011.04;107966;1263;68565;-66
2022/12/25 12:57:41;;;;;;;4.30;2.70;;;;;;;10.35;65.45;98020.28;108044;1260;58958;-66
2022/12/25 13:00:18;;;;;;;6.90;3.80;;;;;;;10.38;65.90;98027.25;108064;1264;58848;-66
2022/12/25 13:03:25;;;;;;;6.80;3.70;;;;;;;10.05;65.52;98033.21;108067;1260;70834;-64
2022/12/25 13:06:14;;;;;;;6.30;4.60;;;;;;;9.97;67.22;98044.55;108028;1264;68376;-65
2022/12/25 13:09:34;;;;;;;8.60;5.70;;;;;;;9.91;67.09;98052.88;108025;1264;69253;-66
2022/12/25 13:12:07;;;;;;;11.70;7.50;;;;;;;9.81;67.02;98058.74;107791;1264;58952;-66
2022/12/25 13:14:36;;;;;;;11.50;7.60;;;;;;;9.74;67.43;98056.69;108028;1263;59276;-66
2022/12/25 13:17:07;;;;;;;7.80;4.80;;;;;;;9.66;67.85;98054.90;108027;1262;71241;-66
2022/12/25 13:19:37;;;;;;;13.70;7.90;;;;;;;9.46;68.04;98053.10;108012;1264;68196;-66
2022/12/25 13:22:06;;;;;;;9.20;6.10;;;;;;;9.40;68.14;98053.48;108045;1259;68177;-66
2022/12/25 13:24:36;;;;;;;12.90;7.30;;;;;;;9.29;68.38;98056.17;108074;1264;58960;-66
2022/12/25 13:27:23;;;;;;;12.50;7.40;;;;;;;9.25;68.83;98062.17;108024;1259;58892;-66
2022/12/25 13:29:51;;;;;;;8.80;4.90;;;;;;;9.10;69.18;98060.19;108031;1257;70367;-66
2022/12/25 13:32:28;;;;;;;10.20;6.90;;;;;;;9.06;69.36;98056.80;108029;1263;68909;-66
2022/12/25 13:34:59;;;;;;;10.50;6.00;;;;;;;8.98;69.78;98057.09;108037;1260;69263;-66
2022/12/25 13:37:30;;;;;;;9.70;6.20;;;;;;;8.91;70.28;98054.17;108002;1264;58976;-66
2022/12/25 13:40:02;;;;;;;9.50;5.30;;;;;;;8.85;70.25;98051.70;108016;1263;58957;-65
2022/12/25 13:42:35;;;;;;;7.80;4.70;;;;;;;8.75;70.34;98055.20;108057;1260;70417;-65
2022/12/25 13:45:17;;;;;;;12.60;7.00;;;;;;;8.62;70.94;98055.39;108012;1260;69463;-65
2022/12/25 13:47:46;;;;;;;11.90;7.10;;;;;;;8.55;71.06;98059.25;108023;1264;68441;-66
2022/12/25 13:50:31;;;;;;;9.20;5.70;;;;;;;8.45;71.46;98064.65;108009;1263;59022;-66
2022/12/25 13:53:16;;;;;;;8.60;6.30;;;;;;;8.39;71.94;98071.42;107956;1262;58960;-66
2022/12/25 13:55:51;;;;;;;8.80;7.10;;;;;;;8.29;73.58;98074.52;108036;1259;71041;-67
2022/12/25 13:58:32;;;;;;;8.90;6.40;;;;;;;8.14;74.20;98076.17;108033;1264;69631;-65
2022/12/25 14:01:02;;;;;;;9.60;6.30;;;;;;;7.99;74.38;98079.21;108005;1262;70189;-66
2022/12/25 14:03:39;;;;;;;8.30;7.30;;;;;;;7.93;75.09;98072.25;107962;1264;58955;-67
2022/12/25 14:06:26;;;;;;;9.60;6.30;;;;;;;7.84;74.95;98070.27;108030;1260;58884;-67
2022/12/25 14:08:57;;;;;;;9.40;7.40;;;;;;;7.78;75.51;98068.14;108010;1259;69086;-66
2022/12/25 14:11:28;;;;;;;9.40;5.40;;;;;;;7.70;76.47;98068.73;108019;1260;68990;-65
2022/12/25 14:14:01;;;;;;;8.20;5.80;;;;;;;7.62;76.67;98063.73;108052;1264;69094;-67
2022/12/25 14:16:30;;;;;;;9.20;6.60;;;;;;;7.59;76.61;98069.62;108114;1260;58867;-66
2022/12/25 14:19:01;;;;;;;9.10;6.80;;;;;;;7.54;77.31;98071.94;108049;1260;58847;-67
2022/12/25 14:21:33;;;;;;;7.70;5.50;;;;;;;7.49;78.21;98080.86;108063;1264;71476;-67
2022/12/25 14:24:03;;;;;;;9.80;5.60;;;;;;;7.45;77.75;98081.81;108071;1263;69732;-65
2022/12/25 14:26:33;;;;;;;5.90;4.60;;;;;;;7.37;78.38;98083.23;108000;1264;69973;-65
2022/12/25 14:29:04;;;;;;;7.10;5.40;;;;;;;7.33;78.86;98090.18;108010;1260;58962;-67
2022/12/25 14:31:34;;;;;;;7.30;5.30;;;;;;;7.40;78.44;98083.06;108099;1264;58906;-66
2022/12/25 14:34:09;;;;;;;7.00;5.50;;;;;;;7.51;78.99;98081.83;108055;1264;70448;-66
2022/12/25 14:36:39;;;;;;;7.10;5.40;;;;;;;7.50;78.39;98077.34;108033;1264;69685;-66
2022/12/25 14:39:24;;;;;;;7.30;5.00;;;;;;;7.43;79.58;98079.11;108048;1264;69117;-66
2022/12/25 14:41:53;;;;;;;6.40;4.50;;;;;;;7.32;79.96;98080.52;108004;1260;58949;-66
2022/12/25 14:44:32;;;;;;;4.80;4.20;;;;;;;7.24;79.54;98084.76;108034;1264;58957;-66
2022/12/25 14:47:09;;;;;;;5.60;4.20;;;;;;;7.09;80.40;98087.36;108044;1264;70403;-66
2022/12/25 14:49:38;;;;;;;6.60;4.10;;;;;;;7.01;80.60;98089.80;108046;1257;69890;-65
2022/12/25 14:52:31;;;;;;;6.70;4.80;;;;;;;6.93;80.97;98094.02;108004;1264;68766;-65
2022/12/25 14:55:03;;;;;;;10.40;7.80;;;;;;;6.83;82.36;98096.40;107933;1264;58970;-65
2022/12/25 14:57:39;;;;;;;7.70;6.80;;;;;;;6.74;82.90;98098.36;108030;1264;58883;-65
2022/12/25 15:00:28;;;;;;;10.90;8.70;;;;;;;6.67;82.90;98100.44;108016;1264;71129;-65
2022/12/25 15:02:58;;;;;;;11.70;8.00;;;;;;;6.52;83.09;98102.83;108045;1264;70007;-65
2022/12/25 15:05:30;;;;;;;10.50;8.80;;;;;;;6.43;83.91;98101.48;107974;1264;69939;-66
2022/12/25 15:08:07;;;;;;;11.50;8.30;;;;;;;6.33;85.76;98102.98;108043;1264;58907;-66
2022/12/25 15:10:37;;;;;;;8.20;6.20;;;;;;;6.23;85.85;98101.20;108041;1264;58890;-65
2022/12/25 15:13:26;;;;;;;;;;;;;;;6.09;85.82;98099.35;108007;1260;70638;-66
2022/12/25 15:16:14;;;;;;;12.40;8.60;;;;;;;5.94;86.60;98095.36;108045;1264;68267;-66
2022/12/25 15:18:46;;;;;;;13.80;12.40;;;;;;;5.75;86.29;98096.02;108082;1264;69881;-66
2022/12/25 15:21:20;;;;;;;11.00;9.40;;;;;;;5.48;87.84;98096.23;108062;1263;58962;-67
2022/12/25 15:23:48;;;;;;;12.00;10.50;;;;;;;5.24;88.06;98095.98;108109;1263;58904;-66
2022/12/25 15:26:17;;;;;;;15.40;13.80;;;;;;;5.04;88.05;98097.16;108041;1263;70371;-65
2022/12/25 15:28:46;;;;;;;12.60;11.10;;;;;;;4.85;88.72;98104.11;108022;1264;69157;-67
2022/12/25 15:31:26;;;;;;;14.00;11.50;;;;;;;4.76;91.83;98104.30;108069;1260;70001;-66
2022/12/25 15:33:57;;;;;;;12.80;8.90;;;;;;;4.71;91.34;98108.14;108046;1264;58917;-68
2022/12/25 15:36:26;;;;;;;10.90;9.50;;;;;;;4.65;89.67;98109.75;108038;1264;58910;-66
2022/12/25 15:38:55;;;;;;;24.20;14.30;;;;;;;4.62;89.39;98104.33;108033;1260;71104;-66
2022/12/25 15:44:16;;;;;;;19.20;14.90;;;;;;;4.61;92.79;98110.90;108021;1263;69181;-65
2022/12/25 15:46:44;;;;;;;17.80;14.00;;;;;;;4.60;94.06;98114.73;108053;1261;58939;-67
2022/12/25 15:49:14;;;;;;;15.70;12.00;;;;;;;4.57;92.92;98115.90;108058;1264;58910;-67
2022/12/25 15:51:44;;;;;;;16.00;13.60;;;;;;;4.46;93.11;98115.77;108069;1260;70082;-65
2022/12/25 15:54:13;;;;;;;16.00;14.40;;;;;;;4.42;92.11;98113.01;108023;1264;69812;-66
2022/12/25 15:56:45;;;;;;;12.90;11.40;;;;;;;4.37;92.67;98120.43;108013;1264;69105;-66
2022/12/25 15:59:16;;;;;;;11.70;10.50;;;;;;;4.35;93.21;98127.94;108015;1264;58965;-67
2022/12/25 16:01:51;;;;;;;12.90;9.20;;;;;;;4.36;93.68;98129.13;108022;1264;58911;-67
2022/12/25 16:04:21;;;;;;;11.70;10.50;;;;;;;4.41;96.12;98133.77;108018;1264;71615;-66
2022/12/25 16:06:50;;;;;;;14.30;12.70;;;;;;;4.40;95.78;98136.37;108046;1264;69041;-66
2022/12/25 16:09:20;;;;;;;13.30;9.60;;;;;;;4.36;94.75;98137.90;108017;1264;69778;-66
2022/12/25 16:11:49;;;;;;;13.00;9.50;;;;;;;4.32;94.85;98139.06;108012;1259;58952;-66
2022/12/25 16:14:18;;;;;;;10.70;8.20;;;;;;;4.33;96.24;98141.11;108008;1264;58923;-67
2022/12/25 16:16:46;;;;;;;45.20;23.20;;;;;;;4.34;96.43;98145.05;108092;1264;70520;-66
2022/12/25 16:19:15;;;;;;;22.40;15.60;;;;;;;4.35;96.14;98141.04;108047;1260;69192;-66
2022/12/25 16:21:46;;;;;;;35.10;24.70;;;;;;;4.34;94.77;98145.23;108017;1263;69872;-66
2022/12/25 16:24:14;;;;;;;20.60;13.60;;;;;;;4.24;97.01;98145.58;108024;1264;58908;-67
2022/12/25 16:26:43;;;;;;;14.40;10.50;;;;;;;4.25;97.50;98146.93;108045;1264;58882;-67
2022/12/25 16:29:12;;;;;;;14.20;9.90;;;;;;;4.26;98.70;98149.48;108026;1264;70520;-68
2022/12/25 16:31:40;;;;;;;19.80;14.80;;;;;;;4.29;99.16;98147.64;108049;1263;69177;-70
2022/12/25 16:34:09;;;;;;;14.30;11.30;;;;;;;4.31;98.91;98146.90;108038;1264;68469;-69
2022/12/25 16:36:38;;;;;;;14.60;10.80;;;;;;;4.30;98.65;98148.83;108037;1264;58896;-68
2022/12/25 16:39:07;;;;;;;25.80;19.40;;;;;;;4.29;97.74;98155.43;108035;1260;58878;-67
2022/12/25 16:41:36;;;;;;;31.00;21.20;;;;;;;4.25;95.23;98157.95;108047;1256;70887;-66
2022/12/25 16:44:08;;;;;;;109.10;71.00;;;;;;;4.19;94.78;98155.94;108040;1264;68652;-65
2022/12/25 16:46:39;;;;;;;95.80;65.60;;;;;;;4.12;94.48;98157.91;108019;1261;70195;-65
2022/12/25 16:49:07;;;;;;;93.60;67.10;;;;;;;4.03;94.26;98155.98;108081;1259;58945;-65
2022/12/25 16:51:36;;;;;;;74.30;57.40;;;;;;;3.94;94.38;98156.65;108043;1264;58852;-66
2022/12/25 16:54:07;;;;;;;70.40;51.50;;;;;;;3.86;93.60;98155.86;108041;1262;70556;-66
2022/12/25 16:56:35;;;;;;;63.40;46.50;;;;;;;3.80;94.09;98154.19;108041;1260;69683;-66
2022/12/25 16:59:04;;;;;;;60.10;48.30;;;;;;;3.73;94.78;98155.29;108057;1263;69891;-66
2022/12/25 17:01:33;;;;;;;45.00;36.30;;;;;;;3.68;97.09;98149.41;108029;1264;58942;-67
2022/12/25 17:04:02;;;;;;;37.80;29.90;;;;;;;3.66;95.63;98146.74;108048;1264;58914;-66
2022/12/25 17:06:31;;;;;;;40.10;33.00;;;;;;;3.63;95.59;98146.66;108034;1264;69658;-67